createdAt,value
2022-10-10T00:01:28.548Z,12.00
2022-10-10T00:03:56.240Z,11.90
2022-10-10T00:06:24.133Z,11.90
2022-10-10T00:08:52.404Z,11.90
2022-10-10T00:11:21.969Z,11.90
2022-10-10T00:13:49.385Z,11.90
2022-10-10T00:16:20.355Z,11.90
2022-10-10T00:18:48.496Z,11.90
2022-10-10T00:21:20.264Z,11.80
2022-10-10T00:23:47.410Z,11.80
2022-10-10T00:26:19.180Z,11.90
2022-10-10T00:28:47.514Z,11.90
2022-10-10T00:31:15.356Z,11.80
2022-10-10T00:33:42.639Z,11.80
2022-10-10T00:36:09.902Z,11.70
2022-10-10T00:38:37.131Z,11.70
2022-10-10T00:41:04.808Z,11.70
2022-10-10T00:43:32.939Z,11.70
2022-10-10T00:46:00.330Z,11.60
2022-10-10T00:48:27.422Z,11.60
2022-10-10T00:51:10.157Z,11.50
2022-10-10T00:53:42.683Z,11.50
2022-10-10T00:56:11.300Z,11.50
2022-10-10T00:58:42.575Z,11.50
2022-10-10T01:01:10.198Z,11.40
2022-10-10T01:03:37.752Z,11.40
2022-10-10T01:06:06.337Z,11.40
2022-10-10T01:08:33.831Z,11.30
2022-10-10T01:11:28.605Z,11.30
2022-10-10T01:14:18.614Z,11.30
2022-10-10T01:16:57.337Z,11.20
2022-10-10T01:19:39.793Z,11.20
2022-10-10T01:22:38.769Z,11.20
2022-10-10T01:25:30.535Z,11.10
2022-10-10T01:28:42.630Z,11.10
2022-10-10T01:31:13.924Z,11.10
2022-10-10T01:34:11.546Z,11.10
2022-10-10T01:37:01.837Z,11.10
2022-10-10T01:39:40.201Z,11.00
2022-10-10T01:42:26.252Z,11.00
2022-10-10T01:44:54.250Z,10.90
2022-10-10T01:47:22.445Z,10.90
2022-10-10T01:50:03.880Z,10.90
2022-10-10T01:52:47.584Z,10.90
2022-10-10T01:55:33.694Z,10.90
2022-10-10T01:58:30.854Z,10.80
2022-10-10T02:01:21.227Z,10.80
2022-10-10T02:03:56.173Z,10.80
2022-10-10T02:06:36.336Z,10.70
2022-10-10T02:09:15.278Z,10.70
2022-10-10T02:11:43.733Z,10.70
2022-10-10T02:14:17.353Z,10.70
2022-10-10T02:16:49.855Z,10.70
2022-10-10T02:19:20.231Z,10.70
2022-10-10T02:21:51.927Z,10.60
2022-10-10T02:24:21.565Z,10.60
2022-10-10T02:27:03.473Z,10.60
2022-10-10T02:29:35.122Z,10.60
2022-10-10T02:32:06.506Z,10.60
2022-10-10T02:34:38.660Z,10.60
2022-10-10T02:37:10.807Z,10.60
2022-10-10T02:39:45.146Z,10.50
2022-10-10T02:42:16.404Z,10.60
2022-10-10T02:44:44.645Z,10.50
2022-10-10T02:47:12.033Z,10.50
2022-10-10T02:49:39.174Z,10.50
2022-10-10T02:52:07.103Z,10.50
2022-10-10T02:54:34.536Z,10.50
2022-10-10T02:57:01.718Z,10.50
2022-10-10T02:59:28.886Z,10.50
2022-10-10T03:01:59.109Z,10.50
2022-10-10T03:04:26.439Z,10.50
2022-10-10T03:06:53.818Z,10.50
2022-10-10T03:09:23.057Z,10.50
2022-10-10T03:11:52.426Z,10.50
2022-10-10T03:14:19.614Z,10.50
2022-10-10T03:16:46.805Z,10.50
2022-10-10T03:19:16.211Z,10.50
2022-10-10T03:21:43.420Z,10.50
2022-10-10T03:24:10.645Z,10.50
2022-10-10T03:26:37.956Z,10.40
2022-10-10T03:29:05.351Z,10.40
2022-10-10T03:31:35.441Z,10.40
2022-10-10T03:34:02.692Z,10.40
2022-10-10T03:36:31.352Z,10.40
2022-10-10T03:39:01.271Z,10.40
2022-10-10T03:41:28.521Z,10.40
2022-10-10T03:43:55.768Z,10.40
2022-10-10T03:46:22.993Z,10.40
2022-10-10T03:48:50.210Z,10.40
2022-10-10T03:51:19.678Z,10.40
2022-10-10T03:53:46.910Z,10.30
2022-10-10T03:56:14.202Z,10.40
2022-10-10T03:58:41.479Z,10.40
2022-10-10T04:01:08.753Z,10.40
2022-10-10T04:03:36.001Z,10.30
2022-10-10T04:06:05.659Z,10.30
2022-10-10T04:08:34.951Z,10.30
2022-10-10T04:11:02.764Z,10.30
2022-10-10T04:13:29.986Z,10.30
2022-10-10T04:15:57.540Z,10.30
2022-10-10T04:18:27.097Z,10.30
2022-10-10T04:21:03.640Z,10.30
2022-10-10T04:23:32.985Z,10.30
2022-10-10T04:26:00.309Z,10.30
2022-10-10T04:28:27.569Z,10.30
2022-10-10T04:30:57.026Z,10.20
2022-10-10T04:33:24.306Z,10.20
2022-10-10T04:35:51.475Z,10.20
2022-10-10T04:38:21.386Z,10.20
2022-10-10T04:40:51.260Z,10.20
2022-10-10T04:43:19.276Z,10.10
2022-10-10T04:45:46.859Z,10.10
2022-10-10T04:48:14.484Z,10.10
2022-10-10T04:50:42.032Z,10.10
2022-10-10T04:53:09.263Z,10.10
2022-10-10T04:55:36.550Z,10.10
2022-10-10T04:58:03.938Z,10.10
2022-10-10T05:00:31.164Z,10.10
2022-10-10T05:02:58.378Z,10.10
2022-10-10T05:05:25.623Z,10.10
2022-10-10T05:07:55.535Z,10.10
2022-10-10T05:10:24.454Z,10.10
2022-10-10T05:12:52.625Z,10.10
2022-10-10T05:15:21.453Z,10.10
2022-10-10T05:17:48.674Z,10.10
2022-10-10T05:20:15.863Z,10.10
2022-10-10T05:22:43.082Z,10.10
2022-10-10T05:25:10.534Z,10.10
2022-10-10T05:27:37.795Z,10.10
2022-10-10T05:30:08.080Z,10.10
2022-10-10T05:32:35.456Z,10.10
2022-10-10T05:35:04.259Z,10.10
2022-10-10T05:37:32.464Z,10.10
2022-10-10T05:39:59.682Z,10.20
2022-10-10T05:42:27.042Z,10.10
2022-10-10T05:44:54.189Z,10.20
2022-10-10T05:47:25.389Z,10.20
2022-10-10T05:49:54.680Z,10.20
2022-10-10T05:52:21.922Z,10.20
2022-10-10T05:54:49.572Z,10.20
2022-10-10T05:57:16.793Z,10.20
2022-10-10T05:59:48.432Z,10.20
2022-10-10T06:02:15.593Z,10.20
2022-10-10T06:04:43.187Z,10.20
2022-10-10T06:07:10.305Z,10.20
2022-10-10T06:09:37.534Z,10.20
2022-10-10T06:12:06.826Z,10.30
2022-10-10T06:14:34.025Z,10.30
2022-10-10T06:17:01.235Z,10.30
2022-10-10T06:19:28.370Z,10.30
2022-10-10T06:21:55.694Z,10.30
2022-10-10T06:24:25.379Z,10.30
2022-10-10T06:26:52.532Z,10.40
2022-10-10T06:29:19.824Z,10.40
2022-10-10T06:31:47.005Z,10.40
2022-10-10T06:34:14.185Z,10.40
2022-10-10T06:36:43.616Z,10.50
2022-10-10T06:39:10.851Z,10.50
2022-10-10T06:41:40.301Z,10.50
2022-10-10T06:44:07.699Z,10.50
2022-10-10T06:46:37.351Z,10.60
2022-10-10T06:49:05.174Z,10.60
2022-10-10T06:51:32.690Z,10.70
2022-10-10T06:54:00.034Z,10.70
2022-10-10T06:56:29.749Z,10.70
2022-10-10T06:59:01.974Z,10.80
2022-10-10T07:01:29.281Z,10.80
2022-10-10T07:03:56.656Z,10.90
2022-10-10T07:06:23.930Z,10.90
2022-10-10T07:08:51.128Z,11.00
2022-10-10T07:11:18.488Z,11.00
2022-10-10T07:13:46.127Z,11.10
2022-10-10T07:16:13.422Z,11.20
2022-10-10T07:18:42.612Z,11.20
2022-10-10T07:21:10.134Z,11.30
2022-10-10T07:23:39.515Z,11.40
2022-10-10T07:26:13.551Z,11.50
2022-10-10T07:28:41.020Z,11.60
2022-10-10T07:31:10.333Z,11.70
2022-10-10T07:33:49.933Z,11.80
2022-10-10T07:36:18.478Z,11.90
2022-10-10T07:38:49.877Z,12.00
2022-10-10T07:41:17.163Z,12.20
2022-10-10T07:43:44.437Z,12.30
2022-10-10T07:46:17.225Z,12.30
2022-10-10T07:48:48.762Z,12.40
2022-10-10T07:51:18.782Z,12.50
2022-10-10T07:53:45.976Z,12.60
2022-10-10T07:56:15.574Z,12.70
2022-10-10T07:58:45.335Z,12.80
2022-10-10T08:01:14.228Z,12.80
2022-10-10T08:03:41.781Z,12.90
2022-10-10T08:06:13.767Z,13.00
2022-10-10T08:08:50.313Z,13.00
2022-10-10T08:11:19.340Z,13.10
2022-10-10T08:13:46.567Z,13.10
2022-10-10T08:16:13.971Z,13.20
2022-10-10T08:18:43.362Z,13.20
2022-10-10T08:21:12.706Z,13.30
2022-10-10T08:23:40.296Z,13.30
2022-10-10T08:26:09.896Z,13.40
2022-10-10T08:28:40.141Z,13.50
2022-10-10T08:31:19.229Z,13.60
2022-10-10T08:33:47.535Z,13.60
2022-10-10T08:36:25.295Z,13.80
2022-10-10T08:38:59.359Z,13.80
2022-10-10T08:41:51.241Z,13.90
2022-10-10T08:44:33.318Z,14.00
2022-10-10T08:47:20.739Z,14.10
2022-10-10T08:49:58.921Z,14.20
2022-10-10T08:52:38.505Z,14.30
2022-10-10T08:55:33.753Z,14.30
2022-10-10T08:58:31.092Z,14.50
2022-10-10T09:01:25.111Z,14.60
2022-10-10T09:04:01.391Z,14.70
2022-10-10T09:06:36.510Z,14.80
2022-10-10T09:09:12.643Z,14.90
2022-10-10T09:11:58.851Z,15.10
2022-10-10T09:14:38.377Z,15.20
2022-10-10T09:17:36.663Z,15.40
2022-10-10T09:20:22.016Z,15.60
2022-10-10T09:23:11.638Z,15.70
2022-10-10T09:25:46.341Z,15.80
2022-10-10T09:28:22.101Z,15.90
2022-10-10T09:30:54.433Z,16.00
2022-10-10T09:33:31.810Z,16.20
2022-10-10T09:36:01.836Z,16.30
2022-10-10T09:38:34.297Z,16.40
2022-10-10T09:41:15.062Z,16.50
2022-10-10T09:43:42.628Z,16.50
2022-10-10T09:46:10.125Z,16.60
2022-10-10T09:48:39.325Z,16.60
2022-10-10T09:51:19.059Z,16.70
2022-10-10T09:53:47.819Z,16.80
2022-10-10T09:56:40.303Z,16.90
2022-10-10T09:59:38.583Z,16.90
2022-10-10T10:02:27.025Z,16.90
2022-10-10T10:04:56.844Z,17.00
2022-10-10T10:07:24.137Z,17.00
2022-10-10T10:09:58.116Z,17.10
2022-10-10T10:12:30.440Z,17.20
2022-10-10T10:15:05.136Z,17.20
2022-10-10T10:17:32.913Z,17.30
2022-10-10T10:20:00.288Z,17.30
2022-10-10T10:22:37.418Z,17.40
2022-10-10T10:25:38.477Z,17.50
2022-10-10T10:28:11.929Z,17.50
2022-10-10T10:30:40.404Z,17.60
2022-10-10T10:33:15.037Z,17.70
2022-10-10T10:35:55.382Z,17.80
2022-10-10T10:38:33.599Z,17.90
2022-10-10T10:41:09.259Z,17.90
2022-10-10T10:44:01.174Z,18.00
2022-10-10T10:46:51.410Z,18.10
2022-10-10T10:49:30.783Z,18.10
2022-10-10T10:52:25.962Z,18.20
2022-10-10T10:54:58.475Z,18.30
2022-10-10T10:58:10.450Z,18.40
2022-10-10T11:01:38.377Z,18.50
2022-10-10T11:05:25.126Z,18.50
2022-10-10T11:06:39.564Z,18.60
2022-10-10T11:09:48.737Z,18.60
2022-10-10T11:12:29.501Z,18.70
2022-10-10T11:15:09.702Z,18.80
2022-10-10T11:17:45.567Z,18.80
2022-10-10T11:20:36.665Z,18.80
2022-10-10T11:23:20.338Z,18.90
2022-10-10T11:25:55.662Z,19.00
2022-10-10T11:28:46.030Z,19.00
2022-10-10T11:31:23.141Z,19.10
2022-10-10T11:33:59.882Z,19.10
2022-10-10T11:36:31.697Z,19.20
2022-10-10T11:39:04.715Z,19.30
2022-10-10T11:41:44.252Z,19.40
2022-10-10T11:44:43.854Z,19.50
2022-10-10T11:47:33.078Z,19.60
2022-10-10T11:50:38.457Z,19.70
2022-10-10T11:53:08.175Z,19.70
2022-10-10T11:55:59.760Z,19.80
2022-10-10T11:58:46.634Z,19.90
2022-10-10T12:01:22.832Z,20.00
2022-10-10T12:03:53.182Z,20.10
2022-10-10T12:06:36.056Z,20.10
2022-10-10T12:09:27.729Z,20.20
2022-10-10T12:12:00.704Z,20.20
2022-10-10T12:14:31.245Z,20.10
2022-10-10T12:17:01.445Z,20.10
2022-10-10T12:19:29.406Z,20.10
2022-10-10T12:22:05.745Z,20.10
2022-10-10T12:24:42.566Z,20.10
2022-10-10T12:27:29.990Z,20.10
2022-10-10T12:29:57.115Z,20.10
2022-10-10T12:32:29.494Z,20.10
2022-10-10T12:34:59.594Z,20.10
2022-10-10T12:37:56.172Z,20.10
2022-10-10T12:40:23.633Z,20.10
2022-10-10T12:42:56.652Z,20.10
2022-10-10T12:45:29.932Z,20.10
2022-10-10T12:48:21.886Z,20.10
2022-10-10T12:51:22.905Z,20.20
2022-10-10T12:53:54.840Z,20.20
2022-10-10T12:56:44.670Z,20.20
2022-10-10T12:59:24.473Z,20.20
2022-10-10T13:02:03.697Z,20.20
2022-10-10T13:04:31.593Z,20.20
2022-10-10T13:07:01.984Z,20.20
2022-10-10T13:09:35.457Z,20.30
2022-10-10T13:12:07.323Z,20.30
2022-10-10T13:14:45.615Z,20.30
2022-10-10T13:17:31.229Z,20.30
2022-10-10T13:20:00.994Z,20.30
2022-10-10T13:22:30.830Z,20.30
2022-10-10T13:24:59.614Z,20.40
2022-10-10T13:27:31.239Z,20.40
2022-10-10T13:30:01.446Z,20.40
2022-10-10T13:32:34.767Z,20.40
2022-10-10T13:35:27.338Z,20.40
2022-10-10T13:37:58.045Z,20.40
2022-10-10T13:40:26.487Z,20.40
2022-10-10T13:42:54.667Z,20.40
2022-10-10T13:45:38.597Z,20.40
2022-10-10T13:48:19.678Z,20.40
2022-10-10T13:50:51.153Z,20.40
2022-10-10T13:53:31.973Z,20.50
2022-10-10T13:56:23.429Z,20.50
2022-10-10T13:59:04.756Z,20.50
2022-10-10T14:01:49.856Z,20.60
2022-10-10T14:04:24.697Z,20.60
2022-10-10T14:07:00.551Z,20.70
2022-10-10T14:09:35.493Z,20.70
2022-10-10T14:12:05.119Z,20.70
2022-10-10T14:14:41.097Z,20.70
2022-10-10T14:17:09.967Z,20.80
2022-10-10T14:19:38.039Z,20.80
2022-10-10T14:22:05.343Z,20.80
2022-10-10T14:24:32.516Z,20.90
2022-10-10T14:27:25.766Z,20.90
2022-10-10T14:29:54.714Z,20.90
2022-10-10T14:32:23.573Z,20.90
2022-10-10T14:34:50.720Z,20.90
2022-10-10T14:37:22.926Z,20.90
2022-10-10T14:39:50.939Z,20.90
2022-10-10T14:42:20.107Z,20.90
2022-10-10T14:44:47.443Z,20.90
2022-10-10T14:47:20.271Z,20.80
2022-10-10T14:49:48.047Z,20.70
2022-10-10T14:52:16.294Z,20.60
2022-10-10T14:54:43.565Z,20.50
2022-10-10T14:57:13.431Z,20.50
2022-10-10T14:59:48.451Z,20.50
2022-10-10T15:02:19.408Z,20.50
2022-10-10T15:04:51.745Z,20.40
2022-10-10T15:07:19.608Z,20.40
2022-10-10T15:10:11.133Z,20.30
2022-10-10T15:12:39.960Z,20.20
2022-10-10T15:15:07.802Z,20.10
2022-10-10T15:17:35.449Z,20.10
2022-10-10T15:20:05.164Z,20.00
2022-10-10T15:22:32.413Z,20.00
2022-10-10T15:24:59.944Z,19.90
2022-10-10T15:27:28.277Z,19.70
2022-10-10T15:29:55.936Z,19.70
2022-10-10T15:32:23.187Z,19.50
2022-10-10T15:34:51.031Z,19.50
2022-10-10T15:37:19.071Z,19.50
2022-10-10T15:39:48.634Z,19.40
2022-10-10T15:42:22.169Z,19.40
2022-10-10T15:44:50.350Z,19.30
2022-10-10T15:47:18.872Z,19.30
2022-10-10T15:49:46.298Z,19.20
2022-10-10T15:52:13.576Z,19.10
2022-10-10T15:54:43.186Z,19.00
2022-10-10T15:57:10.324Z,19.00
2022-10-10T15:59:40.460Z,18.90
2022-10-10T16:02:11.904Z,18.80
2022-10-10T16:04:39.576Z,18.80
2022-10-10T16:07:26.914Z,18.70
2022-10-10T16:09:57.926Z,18.60
2022-10-10T16:12:25.084Z,18.50
2022-10-10T16:14:52.234Z,18.40
2022-10-10T16:17:23.134Z,18.20
2022-10-10T16:19:51.311Z,18.10
2022-10-10T16:22:18.647Z,18.00
2022-10-10T16:24:58.290Z,18.00
2022-10-10T16:27:32.219Z,17.90
2022-10-10T16:29:59.417Z,17.80
2022-10-10T16:32:26.724Z,17.80
2022-10-10T16:34:56.535Z,17.70
2022-10-10T16:37:25.834Z,17.60
2022-10-10T16:39:53.080Z,17.40
2022-10-10T16:42:20.222Z,17.30
2022-10-10T16:44:47.471Z,17.30
2022-10-10T16:47:14.666Z,17.30
2022-10-10T16:49:47.208Z,17.20
2022-10-10T16:52:14.373Z,17.20
2022-10-10T16:54:41.555Z,17.20
2022-10-10T16:57:12.053Z,17.10
2022-10-10T16:59:39.318Z,17.10
2022-10-10T17:02:11.525Z,17.10
2022-10-10T17:04:38.732Z,17.00
2022-10-10T17:07:06.082Z,17.00
2022-10-10T17:09:33.253Z,16.90
2022-10-10T17:12:00.516Z,16.90
2022-10-10T17:14:27.716Z,16.90
2022-10-10T17:19:44.657Z,16.80
2022-10-10T17:22:11.839Z,16.80
2022-10-10T17:24:41.356Z,16.70
2022-10-10T17:27:08.668Z,16.70
2022-10-10T17:29:35.897Z,16.60
2022-10-10T17:32:06.492Z,16.50
2022-10-10T17:34:34.414Z,16.50
2022-10-10T17:37:02.058Z,16.50
2022-10-10T17:39:29.218Z,16.40
2022-10-10T17:41:57.015Z,16.30
2022-10-10T17:44:26.508Z,16.30
2022-10-10T17:46:53.928Z,16.30
2022-10-10T17:49:21.235Z,16.20
2022-10-10T17:51:48.869Z,16.20
2022-10-10T17:54:16.080Z,16.20
2022-10-10T17:56:44.675Z,16.20
2022-10-10T17:59:12.818Z,16.20
2022-10-10T18:01:41.455Z,16.10
2022-10-10T18:04:13.931Z,16.10
2022-10-10T18:06:41.285Z,16.10
2022-10-10T18:09:08.571Z,16.00
2022-10-10T18:11:35.877Z,16.00
2022-10-10T18:14:03.141Z,16.00
2022-10-10T18:16:36.115Z,16.00
2022-10-10T18:19:05.942Z,16.00
2022-10-10T18:21:33.864Z,16.00
2022-10-10T18:24:01.132Z,16.00
2022-10-10T18:26:32.478Z,16.00
2022-10-10T18:29:00.879Z,15.90
2022-10-10T18:31:31.332Z,15.90
2022-10-10T18:33:59.089Z,15.80
2022-10-10T18:36:30.550Z,15.80
2022-10-10T18:38:59.513Z,15.80
2022-10-10T18:41:34.338Z,15.70
2022-10-10T18:44:07.437Z,15.70
2022-10-10T18:46:35.783Z,15.70
2022-10-10T18:49:05.784Z,15.70
2022-10-10T18:51:33.127Z,15.60
2022-10-10T18:54:08.757Z,15.60
2022-10-10T18:56:40.218Z,15.50
2022-10-10T18:59:17.985Z,15.50
2022-10-10T19:01:48.019Z,15.50
2022-10-10T19:04:16.954Z,15.40
2022-10-10T19:06:44.769Z,15.40
2022-10-10T19:09:13.693Z,15.40
2022-10-10T19:11:43.033Z,15.30
2022-10-10T19:14:13.744Z,15.30
2022-10-10T19:16:42.264Z,15.20
2022-10-10T19:19:12.849Z,15.20
2022-10-10T19:21:40.253Z,15.10
2022-10-10T19:24:09.020Z,15.10
2022-10-10T19:26:37.008Z,15.00
2022-10-10T19:29:07.215Z,15.00
2022-10-10T19:31:36.425Z,14.90
2022-10-10T19:34:04.418Z,14.90
2022-10-10T19:36:31.643Z,14.90
2022-10-10T19:39:00.162Z,14.80
2022-10-10T19:41:28.142Z,14.80
2022-10-10T19:43:58.061Z,14.70
2022-10-10T19:46:27.477Z,14.60
2022-10-10T19:48:58.257Z,14.60
2022-10-10T19:51:27.066Z,14.50
2022-10-10T19:53:56.788Z,14.40
2022-10-10T19:56:25.761Z,14.40
2022-10-10T19:58:58.268Z,14.30
2022-10-10T20:01:29.558Z,14.30
2022-10-10T20:03:57.921Z,14.20
2022-10-10T20:06:25.701Z,14.20
2022-10-10T20:08:52.916Z,14.10
2022-10-10T20:11:21.176Z,14.00
2022-10-10T20:13:53.205Z,14.00
2022-10-10T20:16:20.507Z,13.90
2022-10-10T20:18:50.303Z,13.80
2022-10-10T20:21:22.009Z,13.80
2022-10-10T20:23:49.990Z,13.70
2022-10-10T20:26:20.234Z,13.70
2022-10-10T20:28:48.233Z,13.60
2022-10-10T20:31:24.088Z,13.50
2022-10-10T20:33:54.124Z,13.50
2022-10-10T20:36:23.206Z,13.40
2022-10-10T20:38:54.833Z,13.30
2022-10-10T20:41:23.371Z,13.30
2022-10-10T20:43:50.833Z,13.30
2022-10-10T20:46:18.011Z,13.20
2022-10-10T20:48:45.187Z,13.10
2022-10-10T20:51:13.657Z,13.10
2022-10-10T20:53:44.304Z,13.00
2022-10-10T20:56:13.800Z,13.00
2022-10-10T20:58:43.174Z,12.90
2022-10-10T21:01:14.361Z,12.90
2022-10-10T21:03:43.745Z,12.80
2022-10-10T21:06:23.751Z,12.80
2022-10-10T21:08:52.632Z,12.80
2022-10-10T21:11:21.620Z,12.70
2022-10-10T21:13:56.117Z,12.70
2022-10-10T21:16:35.200Z,12.60
2022-10-10T21:19:03.697Z,12.60
2022-10-10T21:21:35.055Z,12.50
2022-10-10T21:24:06.985Z,12.50
2022-10-10T21:26:34.335Z,12.50
2022-10-10T21:29:01.922Z,12.40
2022-10-10T21:31:32.576Z,12.40
2022-10-10T21:34:02.519Z,12.30
2022-10-10T21:36:30.863Z,12.30
2022-10-10T21:39:02.000Z,12.30
2022-10-10T21:41:29.606Z,12.20
2022-10-10T21:43:58.737Z,12.20
2022-10-10T21:46:34.776Z,12.10
2022-10-10T21:49:06.006Z,12.10
2022-10-10T21:51:36.762Z,12.10
2022-10-10T21:54:04.059Z,12.00
2022-10-10T21:56:31.441Z,12.00
2022-10-10T21:59:01.173Z,12.00
2022-10-10T22:01:34.487Z,12.00
2022-10-10T22:04:02.723Z,12.00
2022-10-10T22:06:30.767Z,12.00
2022-10-10T22:09:00.059Z,12.00
2022-10-10T22:11:29.046Z,11.90
2022-10-10T22:13:56.589Z,11.90
2022-10-10T22:16:26.295Z,11.90
2022-10-10T22:18:56.827Z,11.90
2022-10-10T22:21:29.402Z,11.80
2022-10-10T22:24:02.058Z,11.80
2022-10-10T22:26:30.448Z,11.80
2022-10-10T22:28:58.089Z,11.80
2022-10-10T22:31:25.472Z,11.80
2022-10-10T22:33:52.816Z,11.70
2022-10-10T22:36:20.085Z,11.70
2022-10-10T22:38:47.282Z,11.70
2022-10-10T22:41:14.535Z,11.70
2022-10-10T22:43:41.919Z,11.60
2022-10-10T22:46:09.655Z,11.60
2022-10-10T22:48:39.645Z,11.60
2022-10-10T22:51:17.976Z,11.60
2022-10-10T22:53:47.162Z,11.60
2022-10-10T22:56:15.966Z,11.50
2022-10-10T22:58:43.872Z,11.50
2022-10-10T23:01:26.586Z,11.50
2022-10-10T23:04:00.361Z,11.50
2022-10-10T23:06:28.117Z,11.50
2022-10-10T23:08:55.311Z,11.40
2022-10-10T23:11:22.470Z,11.40
2022-10-10T23:13:49.620Z,11.40
2022-10-10T23:16:19.307Z,11.40
2022-10-10T23:18:46.622Z,11.40
2022-10-10T23:21:16.772Z,11.30
2022-10-10T23:23:46.588Z,11.30
2022-10-10T23:26:14.281Z,11.30
2022-10-10T23:28:44.709Z,11.30
2022-10-10T23:31:12.447Z,11.20
2022-10-10T23:33:39.701Z,11.20
2022-10-10T23:36:10.559Z,11.20
2022-10-10T23:38:38.145Z,11.20
2022-10-10T23:41:05.652Z,11.20
2022-10-10T23:43:33.183Z,11.10
2022-10-10T23:46:00.500Z,11.10
2022-10-10T23:48:27.865Z,11.10
2022-10-10T23:50:59.137Z,11.10
2022-10-10T23:53:26.356Z,11.10
2022-10-10T23:55:56.224Z,11.10
2022-10-10T23:58:25.587Z,11.00
